createdAt,value
2019-04-06T00:01:46.408Z,46.70
2019-04-06T00:04:15.584Z,56.27
2019-04-06T00:06:44.810Z,50.67
2019-04-06T00:09:14.035Z,53.50
2019-04-06T00:11:43.326Z,49.40
2019-04-06T00:14:12.480Z,52.40
2019-04-06T00:16:41.725Z,51.53
2019-04-06T00:19:11.010Z,57.47
2019-04-06T00:21:40.159Z,52.17
2019-04-06T00:24:09.437Z,52.37
2019-04-06T00:26:38.615Z,51.70
2019-04-06T00:29:07.873Z,52.43
2019-04-06T00:31:59.125Z,53.83
2019-04-06T00:34:28.353Z,55.58
2019-04-06T00:36:57.559Z,54.17
2019-04-06T00:39:26.812Z,52.40
2019-04-06T00:41:56.060Z,58.57
2019-04-06T00:44:25.381Z,57.80
2019-04-06T00:46:54.574Z,55.93
2019-04-06T00:49:23.741Z,55.55
2019-04-06T00:51:52.902Z,54.67
2019-04-06T00:54:22.099Z,44.40
2019-04-06T00:56:51.261Z,50.30
2019-04-06T00:59:20.512Z,57.80
2019-04-06T01:01:49.756Z,51.30
2019-04-06T01:04:19.023Z,55.37
2019-04-06T01:06:48.220Z,58.73
2019-04-06T01:09:17.754Z,53.50
2019-04-06T01:11:46.982Z,53.03
2019-04-06T01:14:16.297Z,49.67
2019-04-06T01:16:45.606Z,57.47
2019-04-06T01:19:14.824Z,50.80
2019-04-06T01:21:43.984Z,52.37
2019-04-06T01:24:13.177Z,58.70
2019-04-06T01:26:42.402Z,64.03
2019-04-06T01:29:11.581Z,60.77
2019-04-06T01:31:40.817Z,58.40
2019-04-06T01:34:09.970Z,55.05
2019-04-06T01:36:39.157Z,60.60
2019-04-06T01:39:08.535Z,56.60
2019-04-06T01:41:37.851Z,56.83
2019-04-06T01:44:07.107Z,50.50
2019-04-06T01:46:36.338Z,46.87
2019-04-06T01:49:05.571Z,53.10
2019-04-06T01:51:34.747Z,52.10
2019-04-06T01:54:04.178Z,56.37
2019-04-06T01:56:33.492Z,52.70
2019-04-06T01:59:02.742Z,51.80
2019-04-06T02:01:39.524Z,57.27
2019-04-06T02:04:08.774Z,50.73
2019-04-06T02:06:37.916Z,56.23
2019-04-06T02:09:07.180Z,55.90
2019-04-06T02:11:36.326Z,55.50
2019-04-06T02:14:05.627Z,51.33
2019-04-06T02:16:34.840Z,57.67
2019-04-06T02:19:04.040Z,52.53
2019-04-06T02:21:33.415Z,53.20
2019-04-06T02:24:02.653Z,55.50
2019-04-06T02:26:31.832Z,68.30
2019-04-06T02:29:01.202Z,63.23
2019-04-06T02:31:55.540Z,62.60
2019-04-06T02:34:42.845Z,54.80
2019-04-06T02:37:29.744Z,57.63
2019-04-06T02:40:16.559Z,57.90
2019-04-06T02:42:50.112Z,58.80
2019-04-06T02:45:19.292Z,49.90
2019-04-06T02:47:48.569Z,52.00
2019-04-06T02:50:17.862Z,50.57
2019-04-06T02:52:47.028Z,48.57
2019-04-06T02:55:16.283Z,54.13
2019-04-06T02:57:45.482Z,49.67
2019-04-06T03:00:14.930Z,53.70
2019-04-06T03:02:44.154Z,51.77
2019-04-06T03:05:13.954Z,49.48
2019-04-06T03:07:43.197Z,47.77
2019-04-06T03:10:12.515Z,42.50
2019-04-06T03:12:41.763Z,58.60
2019-04-06T03:15:11.005Z,51.13
2019-04-06T03:17:40.230Z,50.40
2019-04-06T03:20:09.538Z,40.77
2019-04-06T03:22:38.722Z,48.50
2019-04-06T03:25:08.109Z,51.95
2019-04-06T03:27:37.369Z,57.07
2019-04-06T03:30:07.248Z,54.13
2019-04-06T03:32:36.485Z,53.47
2019-04-06T03:35:06.661Z,55.47
2019-04-06T03:37:35.955Z,51.33
2019-04-06T03:40:05.799Z,56.47
2019-04-06T03:42:35.067Z,49.30
2019-04-06T03:45:04.438Z,55.80
2019-04-06T03:47:34.076Z,49.73
2019-04-06T03:50:03.498Z,50.20
2019-04-06T03:52:32.960Z,45.00
2019-04-06T03:55:02.334Z,52.43
2019-04-06T03:57:31.642Z,43.00
2019-04-06T04:00:00.906Z,48.02
2019-04-06T04:02:30.114Z,44.83
2019-04-06T04:04:59.293Z,59.30
2019-04-06T04:07:28.611Z,45.77
2019-04-06T04:09:57.800Z,42.00
2019-04-06T04:12:27.001Z,38.05
2019-04-06T04:14:56.180Z,42.77
2019-04-06T04:17:25.429Z,46.30
2019-04-06T04:19:54.727Z,44.88
2019-04-06T04:22:23.936Z,47.00
2019-04-06T04:24:53.167Z,42.67
2019-04-06T04:27:29.639Z,36.93
2019-04-06T04:29:53.500Z,34.43
2019-04-06T04:32:22.731Z,37.40
2019-04-06T04:34:51.964Z,47.43
2019-04-06T04:37:21.173Z,44.97
2019-04-06T04:39:50.479Z,46.50
2019-04-06T04:42:19.680Z,50.07
2019-04-06T04:44:48.877Z,45.78
2019-04-06T04:47:18.075Z,39.70
2019-04-06T04:49:47.239Z,39.83
2019-04-06T04:52:16.589Z,44.40
2019-04-06T04:54:45.921Z,43.97
2019-04-06T04:57:15.106Z,43.37
2019-04-06T04:59:44.376Z,35.43
2019-04-06T05:02:13.744Z,42.80
2019-04-06T05:04:42.957Z,40.65
2019-04-06T05:07:12.221Z,33.40
2019-04-06T05:09:41.514Z,35.17
2019-04-06T05:12:10.780Z,43.30
2019-04-06T05:15:03.676Z,37.63
2019-04-06T05:17:32.884Z,33.00
2019-04-06T05:20:02.051Z,35.93
2019-04-06T05:22:31.491Z,37.40
2019-04-06T05:25:00.773Z,33.53
2019-04-06T05:27:29.952Z,36.20
2019-04-06T05:29:59.169Z,39.93
2019-04-06T05:32:28.461Z,40.70
2019-04-06T05:34:58.368Z,35.48
2019-04-06T05:37:27.738Z,37.57
2019-04-06T05:39:56.973Z,41.77
2019-04-06T05:42:26.185Z,38.67
2019-04-06T05:44:55.388Z,36.80
2019-04-06T05:47:24.618Z,40.70
2019-04-06T05:49:53.887Z,34.25
2019-04-06T05:52:23.113Z,46.80
2019-04-06T05:54:52.347Z,35.33
2019-04-06T05:57:21.517Z,40.50
2019-04-06T05:59:50.846Z,41.80
2019-04-06T06:02:20.097Z,42.40
2019-04-06T06:04:49.378Z,39.45
2019-04-06T06:07:18.572Z,36.43
2019-04-06T06:09:48.212Z,40.70
2019-04-06T06:12:17.469Z,40.13
2019-04-06T06:14:46.721Z,41.90
2019-04-06T06:17:15.968Z,37.43
2019-04-06T06:19:45.147Z,39.93
2019-04-06T06:22:14.319Z,35.60
2019-04-06T06:24:43.574Z,38.40
2019-04-06T06:27:12.792Z,38.00
2019-04-06T06:29:41.958Z,38.33
2019-04-06T06:32:11.144Z,37.17
2019-04-06T06:34:40.397Z,39.47
2019-04-06T06:37:09.637Z,35.77
2019-04-06T06:39:38.811Z,38.37
2019-04-06T06:42:08.059Z,35.87
2019-04-06T06:44:37.265Z,36.97
2019-04-06T06:47:06.530Z,39.50
2019-04-06T06:49:35.724Z,35.03
2019-04-06T06:52:04.977Z,37.40
2019-04-06T06:54:34.191Z,39.57
2019-04-06T06:57:03.441Z,35.67
2019-04-06T06:59:32.677Z,37.10
2019-04-06T07:02:02.005Z,42.90
2019-04-06T07:04:31.263Z,43.00
2019-04-06T07:07:00.486Z,35.80
2019-04-06T07:09:29.821Z,33.87
2019-04-06T07:11:59.027Z,41.53
2019-04-06T07:14:28.186Z,36.17
2019-04-06T07:16:57.408Z,36.20
2019-04-06T07:19:26.718Z,36.50
2019-04-06T07:21:56.150Z,35.50
2019-04-06T07:24:25.427Z,35.13
2019-04-06T07:26:54.620Z,40.80
2019-04-06T07:29:24.014Z,42.17
2019-04-06T07:31:53.325Z,41.00
2019-04-06T07:34:22.506Z,42.20
2019-04-06T07:36:52.200Z,38.75
2019-04-06T07:39:21.588Z,41.83
2019-04-06T07:41:50.844Z,41.00
2019-04-06T07:44:20.016Z,35.60
2019-04-06T07:46:49.357Z,34.10
2019-04-06T07:49:18.663Z,34.00
2019-04-06T07:51:48.044Z,36.95
2019-04-06T07:54:17.278Z,44.30
2019-04-06T07:56:46.648Z,35.97
2019-04-06T07:59:15.969Z,34.27
2019-04-06T08:01:45.366Z,40.33
2019-04-06T08:04:14.835Z,39.10
2019-04-06T08:06:44.107Z,42.87
2019-04-06T08:09:13.316Z,44.60
2019-04-06T08:11:42.604Z,44.77
2019-04-06T08:14:11.835Z,46.10
2019-04-06T08:16:41.019Z,48.27
2019-04-06T08:19:10.260Z,51.80
2019-04-06T08:21:39.594Z,41.90
2019-04-06T08:24:08.882Z,41.43
2019-04-06T08:26:38.076Z,44.77
2019-04-06T08:29:07.285Z,48.15
2019-04-06T08:31:36.671Z,44.30
2019-04-06T08:34:06.040Z,43.20
2019-04-06T08:36:35.269Z,45.93
2019-04-06T08:39:07.015Z,47.23
2019-04-06T08:41:36.536Z,50.15
2019-04-06T08:44:05.915Z,46.90
2019-04-06T08:46:35.137Z,47.62
2019-04-06T08:49:04.504Z,45.40
2019-04-06T08:51:33.718Z,48.87
2019-04-06T08:54:03.169Z,47.97
2019-04-06T08:56:32.484Z,49.37
2019-04-06T08:59:11.280Z,48.27
2019-04-06T09:01:33.377Z,45.17
2019-04-06T09:04:03.335Z,46.02
2019-04-06T09:06:32.840Z,38.40
2019-04-06T09:09:04.510Z,45.85
2019-04-06T09:11:33.746Z,41.50
2019-04-06T09:14:02.996Z,42.27
2019-04-06T09:16:32.171Z,40.03
2019-04-06T09:19:01.333Z,43.07
2019-04-06T09:21:30.824Z,39.87
2019-04-06T09:24:00.075Z,43.40
2019-04-06T09:26:29.361Z,46.90
2019-04-06T09:28:59.710Z,39.10
2019-04-06T09:31:29.234Z,38.37
2019-04-06T09:33:58.612Z,38.40
2019-04-06T09:36:27.875Z,46.50
2019-04-06T09:38:57.328Z,41.33
2019-04-06T09:41:26.680Z,38.30
2019-04-06T09:43:55.977Z,45.30
2019-04-06T09:46:38.021Z,37.40
2019-04-06T09:49:26.219Z,40.10
2019-04-06T09:52:05.241Z,44.73
2019-04-06T09:54:40.563Z,39.20
2019-04-06T09:57:28.079Z,39.93
2019-04-06T10:00:15.153Z,36.60
2019-04-06T10:03:18.782Z,38.27
2019-04-06T10:06:10.040Z,38.03
2019-04-06T10:08:56.617Z,39.00
2019-04-06T10:11:54.091Z,45.00
2019-04-06T10:14:42.279Z,38.58
2019-04-06T10:17:20.758Z,41.23
2019-04-06T10:20:24.209Z,38.67
2019-04-06T10:23:21.377Z,39.70
2019-04-06T10:26:12.386Z,37.40
2019-04-06T10:29:09.660Z,40.73
2019-04-06T10:31:56.370Z,39.00
2019-04-06T10:34:36.995Z,32.97
2019-04-06T10:37:28.257Z,36.27
2019-04-06T10:40:04.638Z,36.90
2019-04-06T10:42:52.853Z,34.93
2019-04-06T10:45:32.346Z,36.75
2019-04-06T10:48:11.538Z,33.73
2019-04-06T10:51:17.960Z,32.60
2019-04-06T10:54:02.330Z,30.33
2019-04-06T10:56:54.384Z,28.80
2019-04-06T10:59:41.317Z,30.77
2019-04-06T11:02:28.210Z,27.10
2019-04-06T11:05:15.079Z,27.77
2019-04-06T11:07:51.193Z,32.27
2019-04-06T11:10:39.651Z,28.20
2019-04-06T11:13:27.849Z,27.27
2019-04-06T11:16:14.699Z,29.13
2019-04-06T11:19:09.023Z,29.53
2019-04-06T11:22:02.518Z,24.37
2019-04-06T11:24:49.400Z,24.02
2019-04-06T11:27:36.575Z,23.83
2019-04-06T11:30:38.549Z,29.00
2019-04-06T11:33:25.211Z,27.27
2019-04-06T11:36:16.187Z,27.43
2019-04-06T11:39:03.083Z,27.80
2019-04-06T11:41:49.780Z,26.03
2019-04-06T11:44:41.960Z,27.52
2019-04-06T11:47:28.938Z,24.03
2019-04-06T11:50:15.919Z,26.02
2019-04-06T11:53:04.349Z,28.40
2019-04-06T11:55:55.350Z,24.77
2019-04-06T11:58:43.550Z,31.00
2019-04-06T12:01:31.850Z,28.13
2019-04-06T12:04:19.351Z,27.20
2019-04-06T12:07:07.694Z,31.40
2019-04-06T12:09:54.858Z,27.93
2019-04-06T12:12:49.195Z,26.60
2019-04-06T12:15:40.257Z,23.97
2019-04-06T12:18:18.595Z,26.03
2019-04-06T12:21:22.015Z,23.10
2019-04-06T12:24:09.199Z,25.50
2019-04-06T12:26:57.423Z,23.50
2019-04-06T12:29:48.905Z,21.35
2019-04-06T12:32:35.903Z,21.10
2019-04-06T12:35:33.900Z,21.00
2019-04-06T12:38:31.148Z,21.53
2019-04-06T12:41:19.613Z,25.93
2019-04-06T12:44:06.624Z,18.50
2019-04-06T12:46:57.944Z,17.67
2019-04-06T12:49:46.201Z,17.40
2019-04-06T12:52:33.405Z,23.17
2019-04-06T12:55:08.307Z,16.87
2019-04-06T12:58:08.328Z,18.17
2019-04-06T13:00:59.362Z,17.93
2019-04-06T13:03:48.444Z,15.20
2019-04-06T13:06:39.373Z,16.80
2019-04-06T13:09:18.012Z,14.23
2019-04-06T13:11:55.596Z,17.40
2019-04-06T13:14:43.215Z,14.90
2019-04-06T13:17:43.697Z,16.30
2019-04-06T13:20:30.423Z,16.90
2019-04-06T13:23:10.680Z,13.30
2019-04-06T13:25:58.967Z,16.70
2019-04-06T13:28:41.432Z,15.33
2019-04-06T13:31:26.831Z,18.13
2019-04-06T13:34:20.850Z,14.33
2019-04-06T13:37:14.998Z,19.93
2019-04-06T13:39:50.694Z,14.13
2019-04-06T13:42:28.161Z,11.70
2019-04-06T13:45:25.691Z,12.90
2019-04-06T13:48:17.009Z,13.70
2019-04-06T13:50:54.937Z,13.30
2019-04-06T13:53:49.029Z,14.10
2019-04-06T13:56:35.877Z,12.90
2019-04-06T13:59:11.815Z,14.50
2019-04-06T14:02:15.273Z,14.13
2019-04-06T14:04:51.369Z,12.40
2019-04-06T14:07:28.169Z,12.07
2019-04-06T14:10:03.831Z,13.23
2019-04-06T14:13:04.028Z,12.17
2019-04-06T14:15:57.852Z,18.37
2019-04-06T14:18:44.455Z,12.57
2019-04-06T14:21:35.698Z,15.37
2019-04-06T14:24:38.905Z,12.67
2019-04-06T14:27:30.113Z,13.48
2019-04-06T14:30:24.269Z,12.37
2019-04-06T14:33:24.689Z,12.30
2019-04-06T14:36:22.185Z,11.97
2019-04-06T14:39:10.631Z,18.37
2019-04-06T14:41:57.722Z,12.83
2019-04-06T14:44:42.723Z,15.27
2019-04-06T14:47:33.856Z,13.77
2019-04-06T14:50:13.691Z,12.83
2019-04-06T14:53:04.745Z,9.80
2019-04-06T14:55:40.198Z,9.23
2019-04-06T14:58:31.750Z,11.30
2019-04-06T15:01:45.514Z,8.90
2019-04-06T15:04:37.446Z,7.40
2019-04-06T15:07:28.282Z,9.70
2019-04-06T15:10:04.363Z,10.00
2019-04-06T15:12:46.485Z,6.93
2019-04-06T15:15:37.531Z,6.72
2019-04-06T15:18:24.357Z,10.90
2019-04-06T15:21:07.261Z,8.57
2019-04-06T15:23:53.859Z,7.00
2019-04-06T15:26:30.479Z,8.63
2019-04-06T15:29:18.860Z,6.62
2019-04-06T15:31:58.837Z,6.63
2019-04-06T15:34:49.806Z,6.07
2019-04-06T15:37:49.972Z,5.97
2019-04-06T15:40:38.266Z,6.72
2019-04-06T15:43:29.448Z,6.03
2019-04-06T15:46:32.543Z,10.50
2019-04-06T15:49:26.832Z,7.40
2019-04-06T15:52:19.379Z,6.13
2019-04-06T15:54:59.741Z,4.43
2019-04-06T15:57:48.001Z,6.37
2019-04-06T16:00:32.133Z,5.85
2019-04-06T16:03:16.913Z,4.10
2019-04-06T16:05:56.843Z,4.07
2019-04-06T16:09:00.062Z,4.73
2019-04-06T16:11:51.219Z,3.50
2019-04-06T16:14:42.564Z,3.90
2019-04-06T16:17:24.094Z,4.17
2019-04-06T16:20:18.529Z,8.80
2019-04-06T16:23:18.987Z,3.27
2019-04-06T16:25:54.081Z,3.20
2019-04-06T16:28:53.782Z,10.60
2019-04-06T16:31:40.096Z,7.00
2019-04-06T16:34:37.397Z,4.37
2019-04-06T16:37:25.624Z,5.90
2019-04-06T16:40:05.831Z,4.33
2019-04-06T16:42:43.392Z,8.93
2019-04-06T16:45:24.549Z,6.33
2019-04-06T16:48:09.075Z,4.47
2019-04-06T16:51:04.035Z,4.77
2019-04-06T16:54:01.206Z,4.37
2019-04-06T16:56:49.650Z,6.53
2019-04-06T16:59:40.895Z,7.42
2019-04-06T17:02:24.415Z,9.27
2019-04-06T17:04:59.362Z,10.07
2019-04-06T17:07:39.924Z,9.58
2019-04-06T17:10:31.253Z,6.27
2019-04-06T17:13:15.320Z,31.87
2019-04-06T17:15:56.267Z,9.27
2019-04-06T17:18:47.484Z,10.23
2019-04-06T17:21:42.095Z,11.93
2019-04-06T17:24:36.294Z,7.73
2019-04-06T17:27:15.188Z,4.77
2019-04-06T17:30:03.260Z,6.87
2019-04-06T17:32:45.994Z,4.42
2019-04-06T17:35:33.465Z,5.03
2019-04-06T17:38:20.502Z,9.00
2019-04-06T17:41:14.866Z,24.77
2019-04-06T17:43:51.683Z,16.07
2019-04-06T17:46:36.865Z,11.80
2019-04-06T17:49:17.268Z,11.43
2019-04-06T17:52:04.063Z,6.60
2019-04-06T17:55:01.233Z,8.23
2019-04-06T17:57:52.483Z,37.15
2019-04-06T18:00:53.037Z,6.40
2019-04-06T18:03:33.217Z,5.80
2019-04-06T18:06:12.703Z,6.70
2019-04-06T18:09:00.179Z,16.03
2019-04-06T18:12:00.806Z,12.80
2019-04-06T18:14:30.350Z,7.97
2019-04-06T18:16:59.706Z,5.73
2019-04-06T18:19:29.778Z,5.17
2019-04-06T18:21:59.560Z,9.00
2019-04-06T18:24:28.764Z,9.50
2019-04-06T18:26:58.324Z,7.73
2019-04-06T18:29:27.915Z,5.37
2019-04-06T18:32:07.175Z,6.20
2019-04-06T18:34:36.554Z,5.63
2019-04-06T18:37:25.669Z,5.33
2019-04-06T18:39:55.720Z,9.33
2019-04-06T18:42:24.967Z,8.50
2019-04-06T18:44:54.552Z,17.33
2019-04-06T18:47:24.196Z,4.97
2019-04-06T18:49:53.559Z,6.97
2019-04-06T18:52:23.667Z,35.27
2019-04-06T18:54:52.933Z,7.47
2019-04-06T18:57:22.111Z,6.10
2019-04-06T18:59:51.501Z,6.70
2019-04-06T19:02:21.288Z,3.70
2019-04-06T19:04:50.665Z,31.43
2019-04-06T19:07:19.914Z,4.13
2019-04-06T19:09:49.195Z,6.27
2019-04-06T19:12:18.511Z,6.30
2019-04-06T19:14:47.711Z,12.50
2019-04-06T19:17:17.461Z,6.10
2019-04-06T19:19:46.809Z,27.27
2019-04-06T19:22:16.490Z,3.83
2019-04-06T19:24:46.330Z,3.10
2019-04-06T19:27:15.651Z,3.85
2019-04-06T19:29:44.845Z,3.13
2019-04-06T19:32:14.151Z,3.60
2019-04-06T19:34:43.792Z,4.60
2019-04-06T19:37:13.083Z,2.30
2019-04-06T19:39:42.313Z,3.25
2019-04-06T19:42:11.692Z,5.27
2019-04-06T19:44:41.021Z,9.43
2019-04-06T19:47:10.258Z,3.90
2019-04-06T19:49:39.881Z,2.58
2019-04-06T19:52:09.587Z,3.83
2019-04-06T19:54:38.974Z,3.37
2019-04-06T19:57:08.640Z,4.40
2019-04-06T19:59:38.018Z,2.80
2019-04-06T20:02:07.761Z,2.50
2019-04-06T20:04:37.540Z,3.77
2019-04-06T20:07:06.905Z,7.33
2019-04-06T20:09:36.572Z,2.23
2019-04-06T20:12:07.793Z,4.50
2019-04-06T20:14:37.266Z,3.90
2019-04-06T20:17:06.957Z,3.07
2019-04-06T20:19:36.399Z,4.13
2019-04-06T20:22:05.695Z,3.57
2019-04-06T20:24:35.233Z,71.40
2019-04-06T20:27:04.552Z,4.73
2019-04-06T20:29:34.131Z,3.23
2019-04-06T20:32:03.434Z,3.30
2019-04-06T20:34:33.320Z,2.20
2019-04-06T20:37:02.588Z,3.37
2019-04-06T20:39:33.502Z,2.40
2019-04-06T20:42:03.043Z,7.90
2019-04-06T20:44:32.821Z,2.93
2019-04-06T20:47:02.102Z,8.10
2019-04-06T20:49:31.968Z,4.63
2019-04-06T20:52:01.854Z,2.70
2019-04-06T20:54:31.160Z,3.30
2019-04-06T20:57:00.489Z,12.20
2019-04-06T20:59:29.838Z,4.00
2019-04-06T21:01:59.079Z,3.90
2019-04-06T21:04:28.344Z,14.13
2019-04-06T21:06:57.619Z,6.53
2019-04-06T21:09:26.888Z,275.87
2019-04-06T21:11:56.117Z,366.97
2019-04-06T21:14:25.299Z,108.53
2019-04-06T21:16:54.627Z,172.40
2019-04-06T21:19:23.837Z,17.57
2019-04-06T21:21:53.519Z,3.20
2019-04-06T21:24:23.370Z,6.25
2019-04-06T21:26:52.607Z,14.40
2019-04-06T21:29:21.875Z,3.70
2019-04-06T21:31:51.101Z,19.40
2019-04-06T21:34:20.462Z,11.50
2019-04-06T21:36:49.729Z,3.60
2019-04-06T21:39:19.009Z,4.97
2019-04-06T21:41:48.684Z,10.13
2019-04-06T21:44:18.033Z,11.73
2019-04-06T21:46:47.301Z,6.30
2019-04-06T21:49:16.751Z,4.70
2019-04-06T21:51:45.955Z,4.00
2019-04-06T21:54:15.168Z,2.80
2019-04-06T21:56:44.430Z,6.50
2019-04-06T21:59:15.805Z,5.33
2019-04-06T22:01:45.026Z,3.37
2019-04-06T22:04:23.609Z,7.73
2019-04-06T22:06:45.309Z,7.60
2019-04-06T22:09:14.571Z,5.43
2019-04-06T22:11:43.801Z,4.90
2019-04-06T22:14:13.122Z,3.20
2019-04-06T22:16:43.284Z,3.80
2019-04-06T22:19:12.585Z,3.37
2019-04-06T22:21:41.884Z,3.80
2019-04-06T22:24:11.135Z,5.20
2019-04-06T22:26:40.594Z,5.23
2019-04-06T22:29:09.916Z,4.63
2019-04-06T22:31:39.155Z,5.10
2019-04-06T22:34:08.320Z,2.73
2019-04-06T22:36:37.502Z,2.03
2019-04-06T22:39:07.881Z,3.47
2019-04-06T22:41:37.732Z,2.40
2019-04-06T22:44:07.375Z,5.20
2019-04-06T22:46:37.117Z,3.77
2019-04-06T22:49:06.620Z,7.50
2019-04-06T22:51:35.913Z,2.17
2019-04-06T22:54:05.276Z,3.62
2019-04-06T22:56:34.500Z,3.27
2019-04-06T22:59:03.648Z,5.00
2019-04-06T23:01:34.667Z,2.50
2019-04-06T23:04:21.724Z,4.00
2019-04-06T23:07:00.823Z,2.58
2019-04-06T23:09:30.813Z,4.97
2019-04-06T23:12:00.694Z,2.80
2019-04-06T23:14:30.035Z,4.03
2019-04-06T23:16:59.814Z,5.37
2019-04-06T23:19:29.484Z,7.33
2019-04-06T23:21:58.653Z,3.00
2019-04-06T23:24:27.839Z,7.10
2019-04-06T23:26:57.037Z,8.00
2019-04-06T23:29:26.850Z,4.10
2019-04-06T23:31:56.225Z,6.20
2019-04-06T23:34:25.882Z,4.33
2019-04-06T23:36:55.718Z,4.58
2019-04-06T23:39:25.248Z,2.80
2019-04-06T23:41:54.528Z,7.60
2019-04-06T23:44:23.829Z,3.90
2019-04-06T23:46:52.996Z,4.17
2019-04-06T23:49:22.433Z,3.77
2019-04-06T23:51:52.102Z,10.38
2019-04-06T23:54:21.684Z,6.10
2019-04-06T23:56:51.824Z,5.43
2019-04-06T23:59:21.014Z,3.90
